sensor_id;sensor_type;location;lat;lon;timestamp;P1;durP1;ratioP1;P2;durP2;ratioP2
33794;SDS011;51430;52.242;21.118;2023-07-29T00:00:11;8.20;;;7.20;;
33794;SDS011;51430;52.242;21.118;2023-07-29T00:03:01;8.00;;;7.20;;
33794;SDS011;51430;52.242;21.118;2023-07-29T00:05:29;8.10;;;7.40;;
33794;SDS011;51430;52.242;21.118;2023-07-29T00:07:58;8.40;;;6.70;;
33794;SDS011;51430;52.242;21.118;2023-07-29T00:10:25;7.40;;;6.70;;
33794;SDS011;51430;52.242;21.118;2023-07-29T00:12:54;10.40;;;7.60;;
33794;SDS011;51430;52.242;21.118;2023-07-29T00:15:22;8.00;;;6.80;;
33794;SDS011;51430;52.242;21.118;2023-07-29T00:17:50;10.00;;;7.00;;
33794;SDS011;51430;52.242;21.118;2023-07-29T00:20:17;8.40;;;7.50;;
33794;SDS011;51430;52.242;21.118;2023-07-29T00:22:45;9.90;;;7.50;;
33794;SDS011;51430;52.242;21.118;2023-07-29T00:25:13;7.90;;;7.20;;
33794;SDS011;51430;52.242;21.118;2023-07-29T00:27:40;10.00;;;8.50;;
33794;SDS011;51430;52.242;21.118;2023-07-29T00:30:09;9.10;;;8.30;;
33794;SDS011;51430;52.242;21.118;2023-07-29T00:32:37;9.90;;;8.90;;
33794;SDS011;51430;52.242;21.118;2023-07-29T00:35:05;9.80;;;8.80;;
33794;SDS011;51430;52.242;21.118;2023-07-29T00:37:33;10.10;;;9.10;;
33794;SDS011;51430;52.242;21.118;2023-07-29T00:40:01;9.80;;;8.90;;
33794;SDS011;51430;52.242;21.118;2023-07-29T00:42:32;10.60;;;8.90;;
33794;SDS011;51430;52.242;21.118;2023-07-29T00:44:59;9.40;;;8.50;;
33794;SDS011;51430;52.242;21.118;2023-07-29T00:47:30;9.00;;;8.10;;
33794;SDS011;51430;52.242;21.118;2023-07-29T00:49:58;10.50;;;8.50;;
33794;SDS011;51430;52.242;21.118;2023-07-29T00:52:26;9.40;;;8.30;;
33794;SDS011;51430;52.242;21.118;2023-07-29T00:54:54;8.70;;;7.90;;
33794;SDS011;51430;52.242;21.118;2023-07-29T00:57:22;10.60;;;8.40;;
33794;SDS011;51430;52.242;21.118;2023-07-29T00:59:52;9.90;;;8.90;;
33794;SDS011;51430;52.242;21.118;2023-07-29T01:02:21;9.20;;;8.30;;
33794;SDS011;51430;52.242;21.118;2023-07-29T01:04:56;9.60;;;8.60;;
33794;SDS011;51430;52.242;21.118;2023-07-29T01:16:17;9.20;;;8.30;;
33794;SDS011;51430;52.242;21.118;2023-07-29T01:18:51;10.40;;;8.60;;
33794;SDS011;51430;52.242;21.118;2023-07-29T01:21:21;9.50;;;8.70;;
33794;SDS011;51430;52.242;21.118;2023-07-29T01:23:52;9.40;;;8.50;;
33794;SDS011;51430;52.242;21.118;2023-07-29T01:26:20;10.30;;;9.20;;
33794;SDS011;51430;52.242;21.118;2023-07-29T01:28:48;9.90;;;8.90;;
33794;SDS011;51430;52.242;21.118;2023-07-29T01:31:17;10.50;;;9.40;;
33794;SDS011;51430;52.242;21.118;2023-07-29T01:34:07;11.10;;;9.50;;
33794;SDS011;51430;52.242;21.118;2023-07-29T01:36:40;10.80;;;9.70;;
33794;SDS011;51430;52.242;21.118;2023-07-29T01:39:14;10.60;;;9.50;;
33794;SDS011;51430;52.242;21.118;2023-07-29T01:41:44;10.80;;;9.70;;
33794;SDS011;51430;52.242;21.118;2023-07-29T01:44:13;10.70;;;9.70;;
33794;SDS011;51430;52.242;21.118;2023-07-29T01:46:41;12.00;;;9.70;;
33794;SDS011;51430;52.242;21.118;2023-07-29T01:49:11;10.70;;;9.40;;
33794;SDS011;51430;52.242;21.118;2023-07-29T01:51:39;10.90;;;9.80;;
33794;SDS011;51430;52.242;21.118;2023-07-29T01:54:07;11.10;;;9.80;;
33794;SDS011;51430;52.242;21.118;2023-07-29T01:56:35;10.70;;;9.70;;
33794;SDS011;51430;52.242;21.118;2023-07-29T01:59:03;10.30;;;9.30;;
33794;SDS011;51430;52.242;21.118;2023-07-29T02:01:49;11.10;;;10.10;;
33794;SDS011;51430;52.242;21.118;2023-07-29T02:04:22;13.20;;;10.70;;
33794;SDS011;51430;52.242;21.118;2023-07-29T02:06:49;15.00;;;13.50;;
33794;SDS011;51430;52.242;21.118;2023-07-29T02:09:17;21.10;;;18.70;;
33794;SDS011;51430;52.242;21.118;2023-07-29T02:11:45;15.90;;;14.20;;
33794;SDS011;51430;52.242;21.118;2023-07-29T02:14:12;14.00;;;12.60;;
33794;SDS011;51430;52.242;21.118;2023-07-29T02:16:40;15.50;;;13.90;;
33794;SDS011;51430;52.242;21.118;2023-07-29T02:19:09;18.70;;;16.80;;
33794;SDS011;51430;52.242;21.118;2023-07-29T02:21:37;17.30;;;15.40;;
33794;SDS011;51430;52.242;21.118;2023-07-29T02:24:04;18.40;;;16.70;;
33794;SDS011;51430;52.242;21.118;2023-07-29T02:26:32;15.10;;;13.50;;
33794;SDS011;51430;52.242;21.118;2023-07-29T02:29:01;15.30;;;13.60;;
33794;SDS011;51430;52.242;21.118;2023-07-29T02:31:29;16.10;;;14.40;;
33794;SDS011;51430;52.242;21.118;2023-07-29T02:33:56;16.90;;;15.30;;
33794;SDS011;51430;52.242;21.118;2023-07-29T02:36:24;16.60;;;14.90;;
33794;SDS011;51430;52.242;21.118;2023-07-29T02:38:52;15.60;;;14.10;;
33794;SDS011;51430;52.242;21.118;2023-07-29T02:41:24;17.80;;;12.20;;
33794;SDS011;51430;52.242;21.118;2023-07-29T02:43:51;17.00;;;15.20;;
33794;SDS011;51430;52.242;21.118;2023-07-29T02:46:19;17.10;;;15.10;;
33794;SDS011;51430;52.242;21.118;2023-07-29T02:48:47;17.50;;;15.70;;
33794;SDS011;51430;52.242;21.118;2023-07-29T02:51:15;16.20;;;14.70;;
33794;SDS011;51430;52.242;21.118;2023-07-29T02:53:43;16.30;;;14.70;;
33794;SDS011;51430;52.242;21.118;2023-07-29T02:56:10;16.10;;;14.60;;
33794;SDS011;51430;52.242;21.118;2023-07-29T02:58:39;15.70;;;14.10;;
33794;SDS011;51430;52.242;21.118;2023-07-29T03:01:07;15.40;;;13.80;;
33794;SDS011;51430;52.242;21.118;2023-07-29T03:03:35;15.40;;;14.00;;
33794;SDS011;51430;52.242;21.118;2023-07-29T03:06:04;15.90;;;14.30;;
33794;SDS011;51430;52.242;21.118;2023-07-29T03:08:33;15.90;;;14.40;;
33794;SDS011;51430;52.242;21.118;2023-07-29T03:11:06;16.40;;;14.80;;
33794;SDS011;51430;52.242;21.118;2023-07-29T03:13:36;16.40;;;14.40;;
33794;SDS011;51430;52.242;21.118;2023-07-29T03:16:05;14.60;;;13.20;;
33794;SDS011;51430;52.242;21.118;2023-07-29T03:18:34;15.50;;;13.90;;
33794;SDS011;51430;52.242;21.118;2023-07-29T03:21:02;16.00;;;14.40;;
33794;SDS011;51430;52.242;21.118;2023-07-29T03:23:32;15.50;;;14.00;;
33794;SDS011;51430;52.242;21.118;2023-07-29T03:26:01;15.70;;;13.30;;
33794;SDS011;51430;52.242;21.118;2023-07-29T03:28:41;14.50;;;13.20;;
33794;SDS011;51430;52.242;21.118;2023-07-29T03:31:10;15.10;;;13.30;;
33794;SDS011;51430;52.242;21.118;2023-07-29T03:33:39;16.60;;;15.00;;
33794;SDS011;51430;52.242;21.118;2023-07-29T03:36:06;14.30;;;13.00;;
33794;SDS011;51430;52.242;21.118;2023-07-29T03:38:34;14.60;;;13.20;;
33794;SDS011;51430;52.242;21.118;2023-07-29T03:41:03;13.90;;;12.60;;
33794;SDS011;51430;52.242;21.118;2023-07-29T03:43:31;14.10;;;12.60;;
33794;SDS011;51430;52.242;21.118;2023-07-29T03:45:59;14.90;;;13.20;;
33794;SDS011;51430;52.242;21.118;2023-07-29T03:48:28;15.40;;;13.00;;
33794;SDS011;51430;52.242;21.118;2023-07-29T03:50:55;14.80;;;13.10;;
33794;SDS011;51430;52.242;21.118;2023-07-29T03:53:23;14.10;;;12.70;;
33794;SDS011;51430;52.242;21.118;2023-07-29T03:55:51;15.80;;;13.40;;
33794;SDS011;51430;52.242;21.118;2023-07-29T03:58:19;15.30;;;13.90;;
33794;SDS011;51430;52.242;21.118;2023-07-29T04:00:47;15.40;;;13.80;;
33794;SDS011;51430;52.242;21.118;2023-07-29T04:03:15;15.10;;;13.60;;
33794;SDS011;51430;52.242;21.118;2023-07-29T04:05:43;14.50;;;13.10;;
33794;SDS011;51430;52.242;21.118;2023-07-29T04:08:11;13.90;;;12.60;;
33794;SDS011;51430;52.242;21.118;2023-07-29T04:10:39;14.00;;;12.70;;
33794;SDS011;51430;52.242;21.118;2023-07-29T04:13:06;14.00;;;12.60;;
33794;SDS011;51430;52.242;21.118;2023-07-29T04:15:34;16.90;;;15.30;;
33794;SDS011;51430;52.242;21.118;2023-07-29T04:18:02;16.20;;;14.60;;
33794;SDS011;51430;52.242;21.118;2023-07-29T04:20:30;15.70;;;14.00;;
33794;SDS011;51430;52.242;21.118;2023-07-29T04:22:58;15.20;;;13.70;;
33794;SDS011;51430;52.242;21.118;2023-07-29T04:25:25;15.20;;;13.70;;
33794;SDS011;51430;52.242;21.118;2023-07-29T04:27:53;14.80;;;13.30;;
33794;SDS011;51430;52.242;21.118;2023-07-29T04:30:21;15.90;;;14.40;;
33794;SDS011;51430;52.242;21.118;2023-07-29T04:32:49;17.30;;;15.40;;
33794;SDS011;51430;52.242;21.118;2023-07-29T04:35:17;16.90;;;15.20;;
33794;SDS011;51430;52.242;21.118;2023-07-29T04:37:45;16.30;;;14.60;;
33794;SDS011;51430;52.242;21.118;2023-07-29T04:40:15;16.70;;;15.10;;
33794;SDS011;51430;52.242;21.118;2023-07-29T04:42:43;17.70;;;15.80;;
33794;SDS011;51430;52.242;21.118;2023-07-29T04:45:11;16.80;;;15.40;;
33794;SDS011;51430;52.242;21.118;2023-07-29T04:47:39;17.00;;;15.40;;
33794;SDS011;51430;52.242;21.118;2023-07-29T04:50:07;17.50;;;15.80;;
33794;SDS011;51430;52.242;21.118;2023-07-29T04:52:35;17.10;;;15.70;;
33794;SDS011;51430;52.242;21.118;2023-07-29T04:55:05;16.90;;;15.40;;
33794;SDS011;51430;52.242;21.118;2023-07-29T04:57:33;16.70;;;15.30;;
33794;SDS011;51430;52.242;21.118;2023-07-29T05:00:01;16.80;;;15.30;;
33794;SDS011;51430;52.242;21.118;2023-07-29T05:03:33;14.50;;;13.20;;
33794;SDS011;51430;52.242;21.118;2023-07-29T05:07:11;14.80;;;13.50;;
33794;SDS011;51430;52.242;21.118;2023-07-29T05:09:38;16.10;;;14.60;;
33794;SDS011;51430;52.242;21.118;2023-07-29T05:12:06;17.40;;;15.80;;
33794;SDS011;51430;52.242;21.118;2023-07-29T05:17:56;18.80;;;17.30;;
33794;SDS011;51430;52.242;21.118;2023-07-29T05:21:20;20.00;;;18.20;;
33794;SDS011;51430;52.242;21.118;2023-07-29T05:24:58;19.80;;;18.20;;
33794;SDS011;51430;52.242;21.118;2023-07-29T05:27:24;25.70;;;23.40;;
33794;SDS011;51430;52.242;21.118;2023-07-29T05:29:50;25.40;;;23.30;;
33794;SDS011;51430;52.242;21.118;2023-07-29T05:32:17;25.60;;;23.10;;
33794;SDS011;51430;52.242;21.118;2023-07-29T05:38:01;25.80;;;23.60;;
33794;SDS011;51430;52.242;21.118;2023-07-29T05:40:29;25.30;;;23.10;;
33794;SDS011;51430;52.242;21.118;2023-07-29T05:42:56;24.70;;;22.40;;
33794;SDS011;51430;52.242;21.118;2023-07-29T05:45:22;25.70;;;23.00;;
33794;SDS011;51430;52.242;21.118;2023-07-29T05:47:49;25.30;;;23.10;;
33794;SDS011;51430;52.242;21.118;2023-07-29T05:51:50;20.90;;;19.00;;
33794;SDS011;51430;52.242;21.118;2023-07-29T05:55:27;19.80;;;18.00;;
33794;SDS011;51430;52.242;21.118;2023-07-29T05:59:04;19.20;;;17.20;;
33794;SDS011;51430;52.242;21.118;2023-07-29T06:02:44;17.50;;;16.00;;
33794;SDS011;51430;52.242;21.118;2023-07-29T06:05:12;15.00;;;13.50;;
33794;SDS011;51430;52.242;21.118;2023-07-29T06:07:40;14.00;;;12.80;;
33794;SDS011;51430;52.242;21.118;2023-07-29T06:10:35;13.10;;;12.00;;
33794;SDS011;51430;52.242;21.118;2023-07-29T06:13:03;12.10;;;11.00;;
33794;SDS011;51430;52.242;21.118;2023-07-29T06:15:32;11.80;;;10.60;;
33794;SDS011;51430;52.242;21.118;2023-07-29T06:18:00;11.20;;;10.30;;
33794;SDS011;51430;52.242;21.118;2023-07-29T06:20:28;11.10;;;10.10;;
33794;SDS011;51430;52.242;21.118;2023-07-29T06:22:56;10.70;;;9.80;;
33794;SDS011;51430;52.242;21.118;2023-07-29T06:25:24;10.80;;;9.90;;
33794;SDS011;51430;52.242;21.118;2023-07-29T06:27:51;10.10;;;9.30;;
33794;SDS011;51430;52.242;21.118;2023-07-29T06:30:19;10.10;;;9.20;;
33794;SDS011;51430;52.242;21.118;2023-07-29T06:32:47;10.50;;;9.60;;
33794;SDS011;51430;52.242;21.118;2023-07-29T06:35:15;10.00;;;9.10;;
33794;SDS011;51430;52.242;21.118;2023-07-29T06:37:43;9.90;;;9.00;;
33794;SDS011;51430;52.242;21.118;2023-07-29T06:40:11;9.90;;;9.00;;
33794;SDS011;51430;52.242;21.118;2023-07-29T06:42:39;9.40;;;8.70;;
33794;SDS011;51430;52.242;21.118;2023-07-29T06:45:09;9.80;;;9.10;;
33794;SDS011;51430;52.242;21.118;2023-07-29T06:47:37;10.50;;;9.70;;
33794;SDS011;51430;52.242;21.118;2023-07-29T06:50:05;9.50;;;8.70;;
33794;SDS011;51430;52.242;21.118;2023-07-29T06:52:33;9.40;;;8.60;;
33794;SDS011;51430;52.242;21.118;2023-07-29T06:55:01;9.20;;;8.40;;
33794;SDS011;51430;52.242;21.118;2023-07-29T06:57:34;9.40;;;8.70;;
33794;SDS011;51430;52.242;21.118;2023-07-29T07:00:02;9.40;;;8.60;;
33794;SDS011;51430;52.242;21.118;2023-07-29T07:02:38;9.50;;;8.80;;
33794;SDS011;51430;52.242;21.118;2023-07-29T07:05:08;9.60;;;8.80;;
33794;SDS011;51430;52.242;21.118;2023-07-29T07:07:35;9.30;;;8.60;;
33794;SDS011;51430;52.242;21.118;2023-07-29T07:10:05;10.20;;;9.40;;
33794;SDS011;51430;52.242;21.118;2023-07-29T07:12:33;10.00;;;9.10;;
33794;SDS011;51430;52.242;21.118;2023-07-29T07:15:01;13.80;;;12.50;;
33794;SDS011;51430;52.242;21.118;2023-07-29T07:17:31;14.90;;;13.40;;
33794;SDS011;51430;52.242;21.118;2023-07-29T07:19:59;16.60;;;15.20;;
33794;SDS011;51430;52.242;21.118;2023-07-29T07:22:27;17.60;;;16.20;;
33794;SDS011;51430;52.242;21.118;2023-07-29T07:24:54;17.70;;;15.70;;
33794;SDS011;51430;52.242;21.118;2023-07-29T07:27:22;16.10;;;14.80;;
33794;SDS011;51430;52.242;21.118;2023-07-29T07:29:50;15.80;;;14.50;;
33794;SDS011;51430;52.242;21.118;2023-07-29T07:32:18;15.60;;;14.10;;
33794;SDS011;51430;52.242;21.118;2023-07-29T07:34:46;15.50;;;14.20;;
33794;SDS011;51430;52.242;21.118;2023-07-29T07:37:14;14.60;;;13.30;;
33794;SDS011;51430;52.242;21.118;2023-07-29T07:39:42;16.30;;;15.00;;
33794;SDS011;51430;52.242;21.118;2023-07-29T07:42:09;15.30;;;13.80;;
33794;SDS011;51430;52.242;21.118;2023-07-29T07:44:37;13.50;;;12.50;;
33794;SDS011;51430;52.242;21.118;2023-07-29T07:47:05;12.10;;;11.10;;
33794;SDS011;51430;52.242;21.118;2023-07-29T07:49:33;11.60;;;10.70;;
33794;SDS011;51430;52.242;21.118;2023-07-29T07:52:01;11.60;;;10.60;;
33794;SDS011;51430;52.242;21.118;2023-07-29T07:54:29;10.80;;;9.80;;
33794;SDS011;51430;52.242;21.118;2023-07-29T07:56:56;10.50;;;9.50;;
33794;SDS011;51430;52.242;21.118;2023-07-29T07:59:24;10.80;;;9.90;;
33794;SDS011;51430;52.242;21.118;2023-07-29T08:01:52;9.90;;;9.00;;
33794;SDS011;51430;52.242;21.118;2023-07-29T08:04:20;9.60;;;8.80;;
33794;SDS011;51430;52.242;21.118;2023-07-29T08:06:48;10.30;;;9.40;;
33794;SDS011;51430;52.242;21.118;2023-07-29T08:09:16;10.40;;;9.50;;
33794;SDS011;51430;52.242;21.118;2023-07-29T08:11:44;9.40;;;8.70;;
33794;SDS011;51430;52.242;21.118;2023-07-29T08:14:11;10.30;;;9.50;;
33794;SDS011;51430;52.242;21.118;2023-07-29T08:16:39;9.90;;;9.10;;
33794;SDS011;51430;52.242;21.118;2023-07-29T08:19:07;8.40;;;7.70;;
33794;SDS011;51430;52.242;21.118;2023-07-29T08:21:37;9.40;;;8.60;;
33794;SDS011;51430;52.242;21.118;2023-07-29T08:24:05;7.80;;;7.20;;
33794;SDS011;51430;52.242;21.118;2023-07-29T08:26:34;6.60;;;6.00;;
33794;SDS011;51430;52.242;21.118;2023-07-29T08:29:03;8.90;;;8.20;;
33794;SDS011;51430;52.242;21.118;2023-07-29T08:31:30;8.80;;;8.00;;
33794;SDS011;51430;52.242;21.118;2023-07-29T08:34:01;8.20;;;7.60;;
33794;SDS011;51430;52.242;21.118;2023-07-29T08:36:29;7.60;;;7.00;;
33794;SDS011;51430;52.242;21.118;2023-07-29T08:38:56;7.50;;;6.90;;
33794;SDS011;51430;52.242;21.118;2023-07-29T08:41:25;7.40;;;6.90;;
33794;SDS011;51430;52.242;21.118;2023-07-29T08:44:09;7.10;;;6.50;;
33794;SDS011;51430;52.242;21.118;2023-07-29T08:46:41;7.00;;;6.40;;
33794;SDS011;51430;52.242;21.118;2023-07-29T08:49:11;6.40;;;5.90;;
33794;SDS011;51430;52.242;21.118;2023-07-29T08:51:41;5.40;;;4.90;;
33794;SDS011;51430;52.242;21.118;2023-07-29T08:54:10;5.30;;;4.90;;
33794;SDS011;51430;52.242;21.118;2023-07-29T08:56:40;5.10;;;4.70;;
33794;SDS011;51430;52.242;21.118;2023-07-29T08:59:09;4.70;;;4.10;;
33794;SDS011;51430;52.242;21.118;2023-07-29T09:01:38;4.90;;;4.40;;
33794;SDS011;51430;52.242;21.118;2023-07-29T09:04:06;4.60;;;4.10;;
33794;SDS011;51430;52.242;21.118;2023-07-29T09:06:34;4.50;;;4.20;;
33794;SDS011;51430;52.242;21.118;2023-07-29T09:09:03;4.20;;;3.80;;
33794;SDS011;51430;52.242;21.118;2023-07-29T09:11:32;3.70;;;3.50;;
33794;SDS011;51430;52.242;21.118;2023-07-29T09:14:01;3.70;;;3.30;;
33794;SDS011;51430;52.242;21.118;2023-07-29T09:16:28;3.70;;;3.40;;
33794;SDS011;51430;52.242;21.118;2023-07-29T09:18:56;3.50;;;3.20;;
33794;SDS011;51430;52.242;21.118;2023-07-29T09:21:29;3.90;;;3.10;;
33794;SDS011;51430;52.242;21.118;2023-07-29T09:23:57;3.90;;;3.20;;
33794;SDS011;51430;52.242;21.118;2023-07-29T09:26:30;3.00;;;2.80;;
33794;SDS011;51430;52.242;21.118;2023-07-29T09:28:59;3.40;;;3.10;;
33794;SDS011;51430;52.242;21.118;2023-07-29T09:31:27;2.80;;;2.60;;
33794;SDS011;51430;52.242;21.118;2023-07-29T09:34:00;6.70;;;3.10;;
33794;SDS011;51430;52.242;21.118;2023-07-29T09:36:33;2.90;;;2.70;;
33794;SDS011;51430;52.242;21.118;2023-07-29T09:39:02;3.80;;;3.00;;
33794;SDS011;51430;52.242;21.118;2023-07-29T09:41:31;3.00;;;2.80;;
33794;SDS011;51430;52.242;21.118;2023-07-29T09:43:59;3.40;;;3.10;;
33794;SDS011;51430;52.242;21.118;2023-07-29T09:46:33;3.30;;;2.80;;
33794;SDS011;51430;52.242;21.118;2023-07-29T09:49:06;3.10;;;2.70;;
33794;SDS011;51430;52.242;21.118;2023-07-29T09:51:40;2.90;;;2.60;;
33794;SDS011;51430;52.242;21.118;2023-07-29T09:54:08;3.20;;;2.40;;
33794;SDS011;51430;52.242;21.118;2023-07-29T09:56:41;3.10;;;2.50;;
33794;SDS011;51430;52.242;21.118;2023-07-29T09:59:12;2.70;;;2.50;;
33794;SDS011;51430;52.242;21.118;2023-07-29T10:01:40;2.70;;;2.20;;
33794;SDS011;51430;52.242;21.118;2023-07-29T10:04:09;2.50;;;2.30;;
33794;SDS011;51430;52.242;21.118;2023-07-29T10:06:41;2.60;;;2.40;;
33794;SDS011;51430;52.242;21.118;2023-07-29T10:09:13;2.10;;;2.00;;
33794;SDS011;51430;52.242;21.118;2023-07-29T10:11:41;2.50;;;2.00;;
33794;SDS011;51430;52.242;21.118;2023-07-29T10:14:09;2.30;;;2.10;;
33794;SDS011;51430;52.242;21.118;2023-07-29T10:16:37;2.30;;;2.10;;
33794;SDS011;51430;52.242;21.118;2023-07-29T10:19:08;2.90;;;1.80;;
33794;SDS011;51430;52.242;21.118;2023-07-29T10:21:38;2.30;;;2.10;;
33794;SDS011;51430;52.242;21.118;2023-07-29T10:24:09;1.80;;;1.60;;
33794;SDS011;51430;52.242;21.118;2023-07-29T10:26:42;1.80;;;1.70;;
33794;SDS011;51430;52.242;21.118;2023-07-29T10:29:13;2.70;;;1.90;;
33794;SDS011;51430;52.242;21.118;2023-07-29T10:31:46;2.60;;;1.90;;
33794;SDS011;51430;52.242;21.118;2023-07-29T10:34:15;2.10;;;1.60;;
33794;SDS011;51430;52.242;21.118;2023-07-29T10:36:43;2.30;;;1.70;;
33794;SDS011;51430;52.242;21.118;2023-07-29T10:39:11;1.80;;;1.70;;
33794;SDS011;51430;52.242;21.118;2023-07-29T10:47:11;1.90;;;1.70;;
33794;SDS011;51430;52.242;21.118;2023-07-29T10:49:50;2.00;;;1.80;;
33794;SDS011;51430;52.242;21.118;2023-07-29T10:52:29;1.90;;;1.60;;
33794;SDS011;51430;52.242;21.118;2023-07-29T10:55:03;1.90;;;1.80;;
33794;SDS011;51430;52.242;21.118;2023-07-29T10:57:51;1.80;;;1.70;;
33794;SDS011;51430;52.242;21.118;2023-07-29T11:00:20;2.00;;;1.70;;
33794;SDS011;51430;52.242;21.118;2023-07-29T11:03:01;1.90;;;1.60;;
33794;SDS011;51430;52.242;21.118;2023-07-29T11:05:47;2.50;;;1.80;;
33794;SDS011;51430;52.242;21.118;2023-07-29T11:08:27;1.80;;;1.70;;
33794;SDS011;51430;52.242;21.118;2023-07-29T11:13:27;2.20;;;1.60;;
33794;SDS011;51430;52.242;21.118;2023-07-29T11:15:56;2.70;;;1.60;;
33794;SDS011;51430;52.242;21.118;2023-07-29T11:18:26;2.30;;;1.90;;
33794;SDS011;51430;52.242;21.118;2023-07-29T11:20:56;1.70;;;1.60;;
33794;SDS011;51430;52.242;21.118;2023-07-29T11:23:31;1.70;;;1.60;;
33794;SDS011;51430;52.242;21.118;2023-07-29T11:26:03;1.80;;;1.70;;
33794;SDS011;51430;52.242;21.118;2023-07-29T11:28:37;1.90;;;1.50;;
33794;SDS011;51430;52.242;21.118;2023-07-29T11:31:06;1.70;;;1.60;;
33794;SDS011;51430;52.242;21.118;2023-07-29T11:33:34;1.80;;;1.70;;
33794;SDS011;51430;52.242;21.118;2023-07-29T11:36:02;1.50;;;1.40;;
33794;SDS011;51430;52.242;21.118;2023-07-29T11:38:30;2.20;;;1.70;;
33794;SDS011;51430;52.242;21.118;2023-07-29T11:41:04;1.90;;;1.50;;
33794;SDS011;51430;52.242;21.118;2023-07-29T11:43:36;2.10;;;1.70;;
33794;SDS011;51430;52.242;21.118;2023-07-29T11:46:04;1.70;;;1.50;;
33794;SDS011;51430;52.242;21.118;2023-07-29T11:48:33;2.40;;;1.60;;
33794;SDS011;51430;52.242;21.118;2023-07-29T11:51:01;2.20;;;1.60;;
33794;SDS011;51430;52.242;21.118;2023-07-29T11:53:30;1.60;;;1.50;;
33794;SDS011;51430;52.242;21.118;2023-07-29T11:55:58;1.70;;;1.60;;
33794;SDS011;51430;52.242;21.118;2023-07-29T11:58:27;1.60;;;1.50;;
33794;SDS011;51430;52.242;21.118;2023-07-29T12:00:54;1.80;;;1.60;;
33794;SDS011;51430;52.242;21.118;2023-07-29T12:03:23;1.60;;;1.50;;
33794;SDS011;51430;52.242;21.118;2023-07-29T12:05:52;1.60;;;1.50;;
33794;SDS011;51430;52.242;21.118;2023-07-29T12:08:20;2.70;;;1.50;;
33794;SDS011;51430;52.242;21.118;2023-07-29T12:10:48;1.60;;;1.50;;
33794;SDS011;51430;52.242;21.118;2023-07-29T12:13:16;2.10;;;1.70;;
33794;SDS011;51430;52.242;21.118;2023-07-29T12:15:44;1.60;;;1.50;;
33794;SDS011;51430;52.242;21.118;2023-07-29T12:18:12;3.00;;;1.60;;
33794;SDS011;51430;52.242;21.118;2023-07-29T12:20:40;1.60;;;1.50;;
33794;SDS011;51430;52.242;21.118;2023-07-29T12:23:08;1.70;;;1.60;;
33794;SDS011;51430;52.242;21.118;2023-07-29T12:25:36;2.90;;;1.60;;
33794;SDS011;51430;52.242;21.118;2023-07-29T12:28:06;1.70;;;1.60;;
33794;SDS011;51430;52.242;21.118;2023-07-29T12:30:40;1.50;;;1.40;;
33794;SDS011;51430;52.242;21.118;2023-07-29T12:33:09;2.20;;;1.50;;
33794;SDS011;51430;52.242;21.118;2023-07-29T12:35:37;1.70;;;1.60;;
33794;SDS011;51430;52.242;21.118;2023-07-29T12:38:05;1.90;;;1.50;;
33794;SDS011;51430;52.242;21.118;2023-07-29T12:40:37;1.80;;;1.60;;
33794;SDS011;51430;52.242;21.118;2023-07-29T12:43:07;2.00;;;1.70;;
33794;SDS011;51430;52.242;21.118;2023-07-29T12:45:36;1.90;;;1.80;;
33794;SDS011;51430;52.242;21.118;2023-07-29T12:48:07;2.10;;;1.70;;
33794;SDS011;51430;52.242;21.118;2023-07-29T12:50:37;1.90;;;1.50;;
33794;SDS011;51430;52.242;21.118;2023-07-29T12:53:06;3.80;;;1.40;;
33794;SDS011;51430;52.242;21.118;2023-07-29T12:55:35;1.60;;;1.50;;
33794;SDS011;51430;52.242;21.118;2023-07-29T12:58:03;2.00;;;1.60;;
33794;SDS011;51430;52.242;21.118;2023-07-29T13:00:32;1.90;;;1.30;;
33794;SDS011;51430;52.242;21.118;2023-07-29T13:02:59;1.90;;;1.40;;
33794;SDS011;51430;52.242;21.118;2023-07-29T13:05:28;1.50;;;1.40;;
33794;SDS011;51430;52.242;21.118;2023-07-29T13:07:56;1.70;;;1.60;;
33794;SDS011;51430;52.242;21.118;2023-07-29T13:10:23;1.90;;;1.80;;
33794;SDS011;51430;52.242;21.118;2023-07-29T13:12:53;2.20;;;1.60;;
33794;SDS011;51430;52.242;21.118;2023-07-29T13:15:21;1.50;;;1.40;;
33794;SDS011;51430;52.242;21.118;2023-07-29T13:17:49;3.00;;;1.50;;
33794;SDS011;51430;52.242;21.118;2023-07-29T13:20:17;1.60;;;1.50;;
33794;SDS011;51430;52.242;21.118;2023-07-29T13:22:44;1.60;;;1.50;;
33794;SDS011;51430;52.242;21.118;2023-07-29T13:25:12;1.70;;;1.60;;
33794;SDS011;51430;52.242;21.118;2023-07-29T13:27:40;1.70;;;1.60;;
33794;SDS011;51430;52.242;21.118;2023-07-29T13:30:08;2.00;;;1.70;;
33794;SDS011;51430;52.242;21.118;2023-07-29T13:32:36;1.60;;;1.50;;
33794;SDS011;51430;52.242;21.118;2023-07-29T13:35:04;4.00;;;1.60;;
33794;SDS011;51430;52.242;21.118;2023-07-29T13:37:32;1.90;;;1.50;;
33794;SDS011;51430;52.242;21.118;2023-07-29T13:40:00;1.70;;;1.60;;
33794;SDS011;51430;52.242;21.118;2023-07-29T13:42:28;1.50;;;1.40;;
33794;SDS011;51430;52.242;21.118;2023-07-29T13:44:55;1.60;;;1.50;;
33794;SDS011;51430;52.242;21.118;2023-07-29T13:47:23;2.20;;;1.70;;
33794;SDS011;51430;52.242;21.118;2023-07-29T13:49:51;2.20;;;1.80;;
33794;SDS011;51430;52.242;21.118;2023-07-29T13:52:19;2.10;;;1.60;;
33794;SDS011;51430;52.242;21.118;2023-07-29T13:54:47;1.90;;;1.80;;
33794;SDS011;51430;52.242;21.118;2023-07-29T13:57:14;2.10;;;1.70;;
33794;SDS011;51430;52.242;21.118;2023-07-29T13:59:42;1.70;;;1.40;;
33794;SDS011;51430;52.242;21.118;2023-07-29T14:02:10;2.10;;;1.70;;
33794;SDS011;51430;52.242;21.118;2023-07-29T14:04:38;1.60;;;1.50;;
33794;SDS011;51430;52.242;21.118;2023-07-29T14:07:06;2.00;;;1.80;;
33794;SDS011;51430;52.242;21.118;2023-07-29T14:09:35;2.30;;;1.90;;
33794;SDS011;51430;52.242;21.118;2023-07-29T14:12:04;2.80;;;1.80;;
33794;SDS011;51430;52.242;21.118;2023-07-29T14:14:32;2.20;;;1.60;;
33794;SDS011;51430;52.242;21.118;2023-07-29T14:17:00;3.20;;;2.50;;
33794;SDS011;51430;52.242;21.118;2023-07-29T14:19:28;2.00;;;1.80;;
33794;SDS011;51430;52.242;21.118;2023-07-29T14:21:55;1.50;;;1.40;;
33794;SDS011;51430;52.242;21.118;2023-07-29T14:24:23;2.40;;;1.60;;
33794;SDS011;51430;52.242;21.118;2023-07-29T14:26:51;1.90;;;1.60;;
33794;SDS011;51430;52.242;21.118;2023-07-29T14:29:19;2.30;;;1.80;;
33794;SDS011;51430;52.242;21.118;2023-07-29T14:31:46;2.40;;;2.20;;
33794;SDS011;51430;52.242;21.118;2023-07-29T14:34:14;2.30;;;2.10;;
33794;SDS011;51430;52.242;21.118;2023-07-29T14:36:42;1.60;;;1.50;;
33794;SDS011;51430;52.242;21.118;2023-07-29T14:39:10;2.20;;;1.90;;
33794;SDS011;51430;52.242;21.118;2023-07-29T14:41:40;3.00;;;1.90;;
33794;SDS011;51430;52.242;21.118;2023-07-29T14:44:07;2.40;;;1.60;;
33794;SDS011;51430;52.242;21.118;2023-07-29T14:46:35;1.70;;;1.60;;
33794;SDS011;51430;52.242;21.118;2023-07-29T14:49:04;1.90;;;1.80;;
33794;SDS011;51430;52.242;21.118;2023-07-29T14:51:31;3.40;;;1.70;;
33794;SDS011;51430;52.242;21.118;2023-07-29T14:53:59;2.60;;;1.90;;
33794;SDS011;51430;52.242;21.118;2023-07-29T14:56:27;3.00;;;1.60;;
33794;SDS011;51430;52.242;21.118;2023-07-29T14:58:55;3.80;;;1.90;;
33794;SDS011;51430;52.242;21.118;2023-07-29T15:01:23;2.40;;;1.90;;
33794;SDS011;51430;52.242;21.118;2023-07-29T15:03:50;1.90;;;1.80;;
33794;SDS011;51430;52.242;21.118;2023-07-29T15:06:18;2.60;;;1.80;;
33794;SDS011;51430;52.242;21.118;2023-07-29T15:08:46;4.00;;;1.90;;